Terminal Aerodrome Forecast
Issued by NWS

Home | Current Version | Previous Version | Text Only | Print | Product List | Glossary On
Versions: 1 2 3 4 5 6 7 8 9 10 11 12
000
FTUS45 KTFX 260542
TAFHVR
TAF
KHVR 260542Z 2606/2706 08009KT P6SM SCT150
     FM270000 01006KT P6SM VCTS SCT060CB BKN100
     FM270300 35012KT P6SM VCTS OVC040CB PROB30 2703/2706 VRB20G30KT
      -TSRA=

USA.gov is the U.S. government's official web portal to all federal, state and local government web resources and services.